createdAt,value
2023-01-27T00:00:36.992Z,2.53
2023-01-27T00:03:06.111Z,3.00
2023-01-27T00:05:34.125Z,2.37
2023-01-27T00:08:02.128Z,2.90
2023-01-27T00:10:30.024Z,2.67
2023-01-27T00:13:15.530Z,2.53
2023-01-27T00:15:43.269Z,2.60
2023-01-27T00:18:12.358Z,2.67
2023-01-27T00:21:12.156Z,2.50
2023-01-27T00:23:57.416Z,2.37
2023-01-27T00:26:25.370Z,2.60
2023-01-27T00:28:53.671Z,2.57
2023-01-27T00:31:39.112Z,2.58
2023-01-27T00:34:11.437Z,2.73
2023-01-27T00:36:39.782Z,2.33
2023-01-27T00:39:07.780Z,2.47
2023-01-27T00:41:35.563Z,2.53
2023-01-27T00:44:04.753Z,2.40
2023-01-27T00:46:32.709Z,2.40
2023-01-27T00:49:00.474Z,2.47
2023-01-27T00:51:29.517Z,2.70
2023-01-27T00:53:59.494Z,2.23
2023-01-27T00:56:28.138Z,2.33
2023-01-27T00:58:55.855Z,2.40
2023-01-27T01:01:23.958Z,2.20
2023-01-27T01:03:51.708Z,2.20
2023-01-27T01:06:19.688Z,2.23
2023-01-27T01:08:49.870Z,2.57
2023-01-27T01:11:18.084Z,2.60
2023-01-27T01:13:45.891Z,2.47
2023-01-27T01:16:14.592Z,2.47
2023-01-27T01:18:42.880Z,2.17
2023-01-27T01:21:11.072Z,2.33
2023-01-27T01:23:40.895Z,2.30
2023-01-27T01:26:10.547Z,2.63
2023-01-27T01:28:38.271Z,2.57
2023-01-27T01:31:06.841Z,2.13
2023-01-27T01:33:35.039Z,2.30
2023-01-27T01:36:07.021Z,2.23
2023-01-27T01:38:35.085Z,2.50
2023-01-27T01:41:02.776Z,2.20
2023-01-27T01:43:31.911Z,2.27
2023-01-27T01:45:59.883Z,2.30
2023-01-27T01:48:33.888Z,2.10
2023-01-27T01:51:05.111Z,2.30
2023-01-27T01:53:37.711Z,2.27
2023-01-27T01:56:08.076Z,2.40
2023-01-27T01:58:37.483Z,2.47
2023-01-27T02:01:05.564Z,2.20
2023-01-27T02:03:33.629Z,1.93
2023-01-27T02:06:01.317Z,2.27
2023-01-27T02:08:30.431Z,2.40
2023-01-27T02:10:58.182Z,1.80
2023-01-27T02:13:26.043Z,2.40
2023-01-27T02:15:56.229Z,2.00
2023-01-27T02:18:24.239Z,2.13
2023-01-27T02:20:53.023Z,2.73
2023-01-27T02:23:27.817Z,2.30
2023-01-27T02:25:59.107Z,2.13
2023-01-27T02:28:27.977Z,2.70
2023-01-27T02:30:55.980Z,2.53
2023-01-27T02:33:24.112Z,3.00
2023-01-27T02:35:56.289Z,2.70
2023-01-27T02:38:24.162Z,3.20
2023-01-27T02:40:53.308Z,2.40
2023-01-27T02:43:22.307Z,2.73
2023-01-27T02:45:50.047Z,2.70
2023-01-27T02:48:17.735Z,2.23
2023-01-27T02:50:45.825Z,2.37
2023-01-27T02:53:13.536Z,2.50
2023-01-27T02:55:41.261Z,2.50
2023-01-27T02:58:09.066Z,2.93
2023-01-27T03:00:38.565Z,2.77
2023-01-27T03:03:06.614Z,2.67
2023-01-27T03:05:34.899Z,2.23
2023-01-27T03:08:02.707Z,2.43
2023-01-27T03:10:30.948Z,2.20
2023-01-27T03:12:58.789Z,2.70
2023-01-27T03:15:44.462Z,2.53
2023-01-27T03:18:15.965Z,2.20
2023-01-27T03:20:45.057Z,2.33
2023-01-27T03:23:12.933Z,2.30
2023-01-27T03:25:43.829Z,2.07
2023-01-27T03:28:11.981Z,2.00
2023-01-27T03:30:40.013Z,2.50
2023-01-27T03:33:07.815Z,2.20
2023-01-27T03:35:39.646Z,1.97
2023-01-27T03:38:25.631Z,1.87
2023-01-27T03:41:11.277Z,2.30
2023-01-27T03:43:56.964Z,1.73
2023-01-27T03:46:24.794Z,2.10
2023-01-27T03:48:53.823Z,2.10
2023-01-27T03:51:23.963Z,1.80
2023-01-27T03:53:52.535Z,2.33
2023-01-27T03:56:21.353Z,2.10
2023-01-27T03:58:50.022Z,1.53
2023-01-27T04:01:18.972Z,2.10
2023-01-27T04:04:04.538Z,1.93
2023-01-27T04:06:52.172Z,2.40
2023-01-27T04:09:21.359Z,2.30
2023-01-27T04:11:58.943Z,1.90
2023-01-27T04:14:28.901Z,2.07
2023-01-27T04:16:58.048Z,1.90
2023-01-27T04:19:26.163Z,2.20
2023-01-27T04:21:55.297Z,2.00
2023-01-27T04:24:26.494Z,2.80
2023-01-27T04:26:56.069Z,2.13
2023-01-27T04:29:24.721Z,1.73
2023-01-27T04:31:52.524Z,1.77
2023-01-27T04:34:20.393Z,2.00
2023-01-27T04:36:48.848Z,2.00
2023-01-27T04:39:18.259Z,1.70
2023-01-27T04:41:46.740Z,1.83
2023-01-27T04:44:14.679Z,2.07
2023-01-27T04:46:43.072Z,2.00
2023-01-27T04:49:11.202Z,1.53
2023-01-27T04:51:39.189Z,1.53
2023-01-27T04:54:07.040Z,1.70
2023-01-27T04:56:36.992Z,1.90
2023-01-27T04:59:06.055Z,1.60
2023-01-27T05:01:33.968Z,1.63
2023-01-27T05:04:02.022Z,1.70
2023-01-27T05:06:29.996Z,1.80
2023-01-27T05:08:58.502Z,1.80
2023-01-27T05:11:26.360Z,1.90
2023-01-27T05:13:55.941Z,2.03
2023-01-27T05:16:25.315Z,1.63
2023-01-27T05:18:53.768Z,1.53
2023-01-27T05:21:22.376Z,1.27
2023-01-27T05:23:50.665Z,1.50
2023-01-27T05:26:19.783Z,1.80
2023-01-27T05:28:48.213Z,1.97
2023-01-27T05:31:19.139Z,1.60
2023-01-27T05:33:47.161Z,1.50
2023-01-27T05:36:16.842Z,1.70
2023-01-27T05:38:44.728Z,1.67
2023-01-27T05:41:13.802Z,1.60
2023-01-27T05:43:42.433Z,1.73
2023-01-27T05:46:11.287Z,1.43
2023-01-27T05:48:41.299Z,1.60
2023-01-27T05:51:09.857Z,1.70
2023-01-27T05:53:37.600Z,1.60
2023-01-27T05:56:06.113Z,1.43
2023-01-27T05:58:34.610Z,1.60
2023-01-27T06:01:08.245Z,1.47
2023-01-27T06:03:36.642Z,1.60
2023-01-27T06:06:06.722Z,1.70
2023-01-27T06:08:34.464Z,1.40
2023-01-27T06:11:02.151Z,1.30
2023-01-27T06:13:30.305Z,1.40
2023-01-27T06:15:58.067Z,1.47
2023-01-27T06:18:26.129Z,1.53
2023-01-27T06:20:53.839Z,1.20
2023-01-27T06:23:22.861Z,1.47
2023-01-27T06:25:50.995Z,1.43
2023-01-27T06:28:33.714Z,1.60
2023-01-27T06:31:06.803Z,1.30
2023-01-27T06:33:34.624Z,1.47
2023-01-27T06:36:03.985Z,1.50
2023-01-27T06:38:33.354Z,1.53
2023-01-27T06:41:01.908Z,1.50
2023-01-27T06:43:29.793Z,1.67
2023-01-27T06:45:58.911Z,1.70
2023-01-27T06:48:26.930Z,1.33
2023-01-27T06:50:55.342Z,1.67
2023-01-27T06:53:23.430Z,1.20
2023-01-27T06:55:56.407Z,1.20
2023-01-27T06:58:24.292Z,1.23
2023-01-27T07:00:52.256Z,1.33
2023-01-27T07:03:20.311Z,1.47
2023-01-27T07:05:48.361Z,1.50
2023-01-27T07:08:16.314Z,1.30
2023-01-27T07:10:44.002Z,1.40
2023-01-27T07:13:14.292Z,1.23
2023-01-27T07:15:42.364Z,1.47
2023-01-27T07:18:11.171Z,1.20
2023-01-27T07:20:39.193Z,1.20
2023-01-27T07:23:07.654Z,1.33
2023-01-27T07:25:36.253Z,1.20
2023-01-27T07:28:04.279Z,1.30
2023-01-27T07:30:34.353Z,1.40
2023-01-27T07:33:05.681Z,1.40
2023-01-27T07:35:33.846Z,1.80
2023-01-27T07:38:01.588Z,1.40
2023-01-27T07:40:29.704Z,1.17
2023-01-27T07:42:59.335Z,1.27
2023-01-27T07:45:27.630Z,1.23
2023-01-27T07:48:02.272Z,1.30
2023-01-27T07:50:30.696Z,1.40
2023-01-27T07:53:00.807Z,1.27
2023-01-27T07:55:29.097Z,1.20
2023-01-27T07:57:56.911Z,1.20
2023-01-27T08:00:25.698Z,1.20
2023-01-27T08:02:53.567Z,1.20
2023-01-27T08:05:23.410Z,1.17
2023-01-27T08:07:51.632Z,1.10
2023-01-27T08:10:19.642Z,1.20
2023-01-27T08:12:47.877Z,1.30
2023-01-27T08:15:18.653Z,1.50
2023-01-27T08:17:53.713Z,1.20
2023-01-27T08:20:23.090Z,1.27
2023-01-27T08:22:50.811Z,1.53
2023-01-27T08:25:18.570Z,1.50
2023-01-27T08:27:46.549Z,1.13
2023-01-27T08:30:15.026Z,1.40
2023-01-27T08:32:43.188Z,1.40
2023-01-27T08:35:11.168Z,0.90
2023-01-27T08:37:40.582Z,1.67
2023-01-27T08:40:09.628Z,1.30
2023-01-27T08:42:37.440Z,1.40
2023-01-27T08:45:06.430Z,1.10
2023-01-27T08:47:34.443Z,1.30
2023-01-27T08:50:02.152Z,1.20
2023-01-27T08:52:30.771Z,1.20
2023-01-27T08:55:00.092Z,1.00
2023-01-27T08:57:27.784Z,1.10
2023-01-27T08:59:55.989Z,1.30
2023-01-27T09:02:24.489Z,1.00
2023-01-27T09:04:52.449Z,1.17
2023-01-27T09:07:20.473Z,1.27
2023-01-27T09:09:48.445Z,1.30
2023-01-27T09:12:17.937Z,1.20
2023-01-27T09:14:45.806Z,1.03
2023-01-27T09:17:17.900Z,1.10
2023-01-27T09:19:45.722Z,1.20
2023-01-27T09:22:13.721Z,1.20
2023-01-27T09:24:41.570Z,1.30
2023-01-27T09:27:09.433Z,1.50
2023-01-27T09:29:39.506Z,1.00
2023-01-27T09:32:09.138Z,1.20
2023-01-27T09:34:37.115Z,1.13
2023-01-27T09:37:06.742Z,1.00
2023-01-27T09:39:34.642Z,1.37
2023-01-27T09:42:14.422Z,1.10
2023-01-27T09:45:00.431Z,1.10
2023-01-27T09:47:35.938Z,1.00
2023-01-27T09:50:31.657Z,1.00
2023-01-27T09:53:08.364Z,1.20
2023-01-27T09:55:38.691Z,1.70
2023-01-27T09:58:08.896Z,1.20
2023-01-27T10:00:46.676Z,1.07
2023-01-27T10:03:37.008Z,1.00
2023-01-27T10:06:20.000Z,0.97
2023-01-27T10:08:59.037Z,0.80
2023-01-27T10:11:29.434Z,1.10
2023-01-27T10:14:04.971Z,1.13
2023-01-27T10:16:48.866Z,1.00
2023-01-27T10:19:27.128Z,0.90
2023-01-27T10:21:59.811Z,0.97
2023-01-27T10:24:34.212Z,1.07
2023-01-27T10:27:04.177Z,1.10
2023-01-27T10:29:35.661Z,1.23
2023-01-27T10:32:08.645Z,1.30
2023-01-27T10:34:37.211Z,1.07
2023-01-27T10:37:11.766Z,1.30
2023-01-27T10:39:44.502Z,1.30
2023-01-27T10:42:17.636Z,1.20
2023-01-27T10:45:00.847Z,1.10
2023-01-27T10:47:35.974Z,1.10
2023-01-27T10:50:05.701Z,1.10
2023-01-27T10:52:35.788Z,1.07
2023-01-27T10:55:05.544Z,1.40
2023-01-27T10:57:35.958Z,1.37
2023-01-27T11:00:37.986Z,1.30
2023-01-27T11:03:03.981Z,1.40
2023-01-27T11:05:34.803Z,1.47
2023-01-27T11:08:04.958Z,1.30
2023-01-27T11:10:37.564Z,1.30
2023-01-27T11:13:05.685Z,1.30
2023-01-27T11:15:34.661Z,1.30
2023-01-27T11:18:05.994Z,1.33
2023-01-27T11:20:35.730Z,1.57
2023-01-27T11:23:05.697Z,1.50
2023-01-27T11:25:38.017Z,1.40
2023-01-27T11:28:12.323Z,1.50
2023-01-27T11:30:44.506Z,1.47
2023-01-27T11:33:18.853Z,1.30
2023-01-27T11:35:47.219Z,1.20
2023-01-27T11:38:16.383Z,1.50
2023-01-27T11:40:44.461Z,2.00
2023-01-27T11:43:12.936Z,1.57
2023-01-27T11:45:41.055Z,1.60
2023-01-27T11:48:12.123Z,1.70
2023-01-27T11:50:41.605Z,1.50
2023-01-27T11:53:13.699Z,1.10
2023-01-27T11:55:42.513Z,1.40
2023-01-27T11:58:14.908Z,1.10
2023-01-27T12:00:45.161Z,1.40
2023-01-27T12:03:17.976Z,1.20
2023-01-27T12:05:49.212Z,1.13
2023-01-27T12:08:37.367Z,1.10
2023-01-27T12:11:21.260Z,0.90
2023-01-27T12:13:50.323Z,1.20
2023-01-27T12:16:18.367Z,1.60
2023-01-27T12:18:52.124Z,1.00
2023-01-27T12:21:21.250Z,1.00
2023-01-27T12:23:49.911Z,0.87
2023-01-27T12:26:18.077Z,1.00
2023-01-27T12:28:50.774Z,0.90
2023-01-27T12:31:21.397Z,1.17
2023-01-27T12:33:52.538Z,0.90
2023-01-27T12:36:23.343Z,0.80
2023-01-27T12:38:52.646Z,0.93
2023-01-27T12:41:25.065Z,1.00
2023-01-27T12:43:54.755Z,1.20
2023-01-27T12:46:24.510Z,1.13
2023-01-27T12:48:53.351Z,1.00
2023-01-27T12:51:23.756Z,1.30
2023-01-27T12:53:52.067Z,1.20
2023-01-27T12:56:21.422Z,1.40
2023-01-27T12:58:57.781Z,1.50
2023-01-27T13:01:28.363Z,1.10
2023-01-27T13:03:58.596Z,1.60
2023-01-27T13:06:42.143Z,1.53
2023-01-27T13:09:22.155Z,1.30
2023-01-27T13:11:50.004Z,1.60
2023-01-27T13:14:18.523Z,1.40
2023-01-27T13:16:52.936Z,1.10
2023-01-27T13:19:20.973Z,1.30
2023-01-27T13:21:51.565Z,1.53
2023-01-27T13:24:23.602Z,1.23
2023-01-27T13:26:51.624Z,1.53
2023-01-27T13:29:21.955Z,1.40
2023-01-27T13:31:52.847Z,1.40
2023-01-27T13:34:24.836Z,1.30
2023-01-27T13:36:56.605Z,1.40
2023-01-27T13:39:29.357Z,1.40
2023-01-27T13:42:05.833Z,1.50
2023-01-27T13:44:36.651Z,1.70
2023-01-27T13:47:05.820Z,1.50
2023-01-27T13:49:37.030Z,1.40
2023-01-27T13:52:07.744Z,1.50
2023-01-27T13:54:35.847Z,1.60
2023-01-27T13:57:15.876Z,1.30
2023-01-27T13:59:49.595Z,1.30
2023-01-27T14:02:41.031Z,1.40
2023-01-27T14:05:26.550Z,1.60
2023-01-27T14:07:58.499Z,1.50
2023-01-27T14:10:28.670Z,1.17
2023-01-27T14:13:03.222Z,1.50
2023-01-27T14:15:33.072Z,1.50
2023-01-27T14:18:04.121Z,1.93
2023-01-27T14:20:38.119Z,1.43
2023-01-27T14:23:17.612Z,1.60
2023-01-27T14:25:48.628Z,1.40
2023-01-27T14:28:22.376Z,1.83
2023-01-27T14:30:55.215Z,2.20
2023-01-27T14:33:29.128Z,1.70
2023-01-27T14:35:58.003Z,1.80
2023-01-27T14:38:31.433Z,1.93
2023-01-27T14:41:11.526Z,1.77
2023-01-27T14:43:43.736Z,1.70
2023-01-27T14:46:17.194Z,1.90
2023-01-27T14:48:51.906Z,1.73
2023-01-27T14:51:22.999Z,1.63
2023-01-27T14:53:59.563Z,1.70
2023-01-27T14:56:32.541Z,1.70
2023-01-27T14:59:02.832Z,1.83
2023-01-27T15:01:35.102Z,1.43
2023-01-27T15:04:14.584Z,1.83
2023-01-27T15:06:45.173Z,1.80
2023-01-27T15:09:22.634Z,1.80
2023-01-27T15:12:02.632Z,1.47
2023-01-27T15:15:19.120Z,1.63
2023-01-27T15:17:54.327Z,1.60
2023-01-27T15:20:31.817Z,1.60
2023-01-27T15:23:17.714Z,1.60
2023-01-27T15:25:48.125Z,1.97
2023-01-27T15:28:17.116Z,1.90
2023-01-27T15:31:08.640Z,1.70
2023-01-27T15:33:46.983Z,1.90
2023-01-27T15:36:19.373Z,1.73
2023-01-27T15:39:00.266Z,1.77
2023-01-27T15:41:29.731Z,1.80
2023-01-27T15:44:05.333Z,1.80
2023-01-27T15:46:34.165Z,1.90
2023-01-27T15:49:04.565Z,1.60
2023-01-27T15:51:35.992Z,1.63
2023-01-27T15:54:03.993Z,1.50
2023-01-27T15:56:47.805Z,1.93
2023-01-27T15:59:17.365Z,1.57
2023-01-27T16:01:45.484Z,1.47
2023-01-27T16:04:16.088Z,1.90
2023-01-27T16:06:49.479Z,1.40
2023-01-27T16:09:22.017Z,1.30
2023-01-27T16:12:00.999Z,1.60
2023-01-27T16:14:49.830Z,1.50
2023-01-27T16:17:19.521Z,1.40
2023-01-27T16:19:49.053Z,1.73
2023-01-27T16:22:19.444Z,1.80
2023-01-27T16:24:49.008Z,1.40
2023-01-27T16:27:23.972Z,1.60
2023-01-27T16:29:57.221Z,1.57
2023-01-27T16:32:26.205Z,1.43
2023-01-27T16:34:55.097Z,1.73
2023-01-27T16:37:24.864Z,1.80
2023-01-27T16:39:56.710Z,1.67
2023-01-27T16:42:30.980Z,1.93
2023-01-27T16:44:59.595Z,1.53
2023-01-27T16:47:29.224Z,1.60
2023-01-27T16:49:57.162Z,1.40
2023-01-27T16:52:40.809Z,1.93
2023-01-27T16:55:19.965Z,1.77
2023-01-27T16:57:49.376Z,1.60
2023-01-27T17:00:20.586Z,1.60
2023-01-27T17:02:48.418Z,1.73
2023-01-27T17:05:17.161Z,1.60
2023-01-27T17:08:01.639Z,1.50
2023-01-27T17:10:34.876Z,1.50
2023-01-27T17:13:04.578Z,1.70
2023-01-27T17:15:35.921Z,1.60
2023-01-27T17:18:05.776Z,1.60
2023-01-27T17:20:35.169Z,1.60
2023-01-27T17:23:03.880Z,1.70
2023-01-27T17:25:34.804Z,1.80
2023-01-27T17:28:07.010Z,1.70
2023-01-27T17:30:36.956Z,1.80
2023-01-27T17:33:05.889Z,2.13
2023-01-27T17:35:35.127Z,1.67
2023-01-27T17:38:08.295Z,2.17
2023-01-27T17:40:37.365Z,2.00
2023-01-27T17:43:22.749Z,2.17
2023-01-27T17:45:51.674Z,1.70
2023-01-27T17:48:19.648Z,1.83
2023-01-27T17:50:47.533Z,2.10
2023-01-27T17:53:24.788Z,1.50
2023-01-27T17:55:52.684Z,1.80
2023-01-27T17:58:24.437Z,1.57
2023-01-27T18:00:52.354Z,2.10
2023-01-27T18:03:23.360Z,1.80
2023-01-27T18:05:52.361Z,1.60
2023-01-27T18:08:20.751Z,1.70
2023-01-27T18:10:48.861Z,1.67
2023-01-27T18:13:48.570Z,1.90
2023-01-27T18:16:16.920Z,1.80
2023-01-27T18:18:44.988Z,1.87
2023-01-27T18:21:17.295Z,1.77
2023-01-27T18:23:46.613Z,2.10
2023-01-27T18:26:22.739Z,1.70
2023-01-27T18:28:53.328Z,1.97
2023-01-27T18:31:23.116Z,1.70
2023-01-27T18:34:01.980Z,1.90
2023-01-27T18:36:34.606Z,1.60
2023-01-27T18:39:02.682Z,2.30
2023-01-27T18:41:32.698Z,1.50
2023-01-27T18:44:02.210Z,1.83
2023-01-27T18:46:30.240Z,2.00
2023-01-27T18:48:59.697Z,1.57
2023-01-27T18:51:28.051Z,1.87
2023-01-27T18:53:56.057Z,1.77
2023-01-27T18:56:24.313Z,1.93
2023-01-27T18:58:54.173Z,1.83
2023-01-27T19:01:24.231Z,1.80
2023-01-27T19:03:53.775Z,2.07
2023-01-27T19:06:21.581Z,2.03
2023-01-27T19:08:52.012Z,1.70
2023-01-27T19:11:20.311Z,1.47
2023-01-27T19:13:48.734Z,1.80
2023-01-27T19:16:18.505Z,2.00
2023-01-27T19:18:47.714Z,2.03
2023-01-27T19:21:16.639Z,1.70
2023-01-27T19:23:45.996Z,1.60
2023-01-27T19:26:19.011Z,1.50
2023-01-27T19:28:47.188Z,1.70
2023-01-27T19:31:15.209Z,1.93
2023-01-27T19:33:45.230Z,1.50
2023-01-27T19:36:22.260Z,1.60
2023-01-27T19:38:50.794Z,2.00
2023-01-27T19:41:18.776Z,2.20
2023-01-27T19:43:50.398Z,1.90
2023-01-27T19:46:20.901Z,1.70
2023-01-27T19:48:50.155Z,1.93
2023-01-27T19:51:19.995Z,1.63
2023-01-27T19:53:48.352Z,1.57
2023-01-27T19:56:17.310Z,1.90
2023-01-27T19:58:47.514Z,1.90
2023-01-27T20:01:15.539Z,1.70
2023-01-27T20:03:43.797Z,1.43
2023-01-27T20:06:15.834Z,1.90
2023-01-27T20:08:45.231Z,1.60
2023-01-27T20:11:30.349Z,1.43
2023-01-27T20:13:58.210Z,1.70
2023-01-27T20:16:26.205Z,1.73
2023-01-27T20:18:54.315Z,1.50
2023-01-27T20:21:22.274Z,1.70
2023-01-27T20:23:52.209Z,1.53
2023-01-27T20:26:22.335Z,1.43
2023-01-27T20:28:50.299Z,1.70
2023-01-27T20:31:19.716Z,1.60
2023-01-27T20:33:49.992Z,1.63
2023-01-27T20:36:18.991Z,1.77
2023-01-27T20:38:46.958Z,1.70
2023-01-27T20:41:17.561Z,1.83
2023-01-27T20:43:45.913Z,1.63
2023-01-27T20:46:15.442Z,1.57
2023-01-27T20:48:43.883Z,1.47
2023-01-27T20:51:13.031Z,1.60
2023-01-27T20:53:45.681Z,1.90
2023-01-27T20:56:14.289Z,2.00
2023-01-27T20:58:43.507Z,1.87
2023-01-27T21:01:13.232Z,1.73
2023-01-27T21:03:41.076Z,1.57
2023-01-27T21:06:09.586Z,2.13
2023-01-27T21:08:37.451Z,1.90
2023-01-27T21:11:06.888Z,1.60
2023-01-27T21:13:34.970Z,1.60
2023-01-27T21:16:05.413Z,1.40
2023-01-27T21:18:33.357Z,1.77
2023-01-27T21:21:02.845Z,1.40
2023-01-27T21:23:31.478Z,1.23
2023-01-27T21:26:04.857Z,2.13
2023-01-27T21:28:33.693Z,1.70
2023-01-27T21:31:13.602Z,1.70
2023-01-27T21:33:41.618Z,1.60
2023-01-27T21:36:11.125Z,1.60
2023-01-27T21:38:39.140Z,1.50
2023-01-27T21:41:07.399Z,1.77
2023-01-27T21:43:53.029Z,1.80
2023-01-27T21:46:22.408Z,1.20
2023-01-27T21:48:50.340Z,1.50
2023-01-27T21:51:18.377Z,1.90
2023-01-27T21:53:46.281Z,1.50
2023-01-27T21:56:14.136Z,1.70
2023-01-27T21:58:42.149Z,1.73
2023-01-27T22:01:10.786Z,1.80
2023-01-27T22:03:40.585Z,1.53
2023-01-27T22:06:08.934Z,1.93
2023-01-27T22:08:37.200Z,2.00
2023-01-27T22:11:05.296Z,1.57
2023-01-27T22:13:33.246Z,1.70
2023-01-27T22:16:01.213Z,1.60
2023-01-27T22:18:29.338Z,1.63
2023-01-27T22:21:02.075Z,1.60
2023-01-27T22:23:30.023Z,1.43
2023-01-27T22:25:57.838Z,1.80
2023-01-27T22:28:26.581Z,1.80
2023-01-27T22:30:55.163Z,1.83
2023-01-27T22:33:23.008Z,2.07
2023-01-27T22:36:00.176Z,1.90
2023-01-27T22:38:28.022Z,2.13
2023-01-27T22:40:59.129Z,2.33
2023-01-27T22:43:27.175Z,2.30
2023-01-27T22:45:55.200Z,2.13
2023-01-27T22:48:23.166Z,2.50
2023-01-27T22:50:50.999Z,2.70
2023-01-27T22:53:20.046Z,2.50
2023-01-27T22:55:47.724Z,2.20
2023-01-27T22:58:16.927Z,3.20
2023-01-27T23:00:44.612Z,2.80
2023-01-27T23:03:12.381Z,2.57
2023-01-27T23:05:40.113Z,2.87
2023-01-27T23:08:08.247Z,3.00
2023-01-27T23:10:37.384Z,3.27
2023-01-27T23:13:05.399Z,3.27
2023-01-27T23:15:33.337Z,3.47
2023-01-27T23:18:01.452Z,3.60
2023-01-27T23:20:29.225Z,3.50
2023-01-27T23:22:57.061Z,3.97
2023-01-27T23:25:24.853Z,3.70
2023-01-27T23:27:54.034Z,3.50
2023-01-27T23:30:22.400Z,3.97
2023-01-27T23:32:50.130Z,4.23
2023-01-27T23:35:18.137Z,4.50
2023-01-27T23:37:46.058Z,3.80
2023-01-27T23:40:14.421Z,3.57
2023-01-27T23:42:42.544Z,4.27
2023-01-27T23:45:12.685Z,4.07
2023-01-27T23:47:40.850Z,4.30
2023-01-27T23:50:09.814Z,3.77
2023-01-27T23:52:37.512Z,3.77
2023-01-27T23:55:05.671Z,4.20
2023-01-27T23:57:33.408Z,4.30
